createdAt,value
2018-08-06T01:57:36.906Z,17.61
2018-08-06T02:00:03.480Z,17.73
2018-08-06T02:02:30.114Z,17.51
2018-08-06T02:04:57.216Z,17.15
2018-08-06T02:07:23.874Z,16.92
2018-08-06T06:09:46.424Z,19.08
2018-08-06T06:12:15.009Z,18.84
2018-08-06T06:14:41.769Z,18.79
2018-08-06T07:35:30.936Z,24.08
2018-08-06T07:37:57.377Z,24.16
2018-08-06T07:40:23.990Z,24.27
2018-08-06T07:42:50.922Z,24.35
2018-08-06T16:51:47.913Z,38.45
2018-08-06T16:54:14.553Z,38.38
2018-08-06T16:56:41.194Z,38.70
2018-08-06T16:59:07.979Z,38.59
2018-08-06T17:01:35.177Z,38.32
2018-08-06T17:04:01.664Z,37.85
2018-08-06T17:06:28.482Z,37.80
2018-08-06T17:08:54.953Z,37.85
2018-08-06T17:11:22.047Z,37.48
2018-08-06T17:13:51.720Z,37.03
2018-08-06T17:16:18.180Z,37.16
2018-08-06T17:18:45.207Z,37.32
2018-08-06T17:21:11.944Z,37.24
2018-08-06T17:23:38.395Z,37.20
2018-08-06T17:26:04.870Z,37.82
2018-08-06T17:28:33.228Z,38.12
2018-08-06T17:30:59.705Z,38.57
2018-08-06T17:33:26.160Z,38.52
2018-08-06T17:35:52.916Z,37.59
2018-08-06T17:38:19.392Z,37.21
2018-08-06T17:40:45.863Z,37.61
2018-08-06T17:43:12.664Z,38.13
2018-08-06T17:45:39.112Z,38.58
2018-08-06T17:48:06.501Z,38.19
2018-08-06T17:50:35.329Z,37.59
2018-08-06T17:53:01.780Z,37.40
2018-08-06T17:55:28.552Z,37.78
2018-08-06T17:57:55.916Z,37.91
2018-08-06T18:00:22.390Z,37.75
2018-08-06T18:02:49.304Z,37.74
2018-08-06T22:07:42.505Z,23.02
